Time;durP1;ratioP1;P1;durP2;ratioP2;P2;SDS_P1;SDS_P2;PMS_P1;PMS_P2;Temp;Humidity;BMP_temperature;BMP_pressure;BME280_temperature;BME280_humidity;BME280_pressure;Samples;Min_cycle;Max_cycle;Signal;HPM_P1;HPM_P2
2022/08/07 00:00:21;;;;;;;13.38;7.57;;;;;;;24.46;nan;100162.03;4987119;28;20796;-71
2022/08/07 00:02:46;;;;;;;12.23;7.75;;;;;;;24.36;nan;100160.50;4992875;28;20113;-71
2022/08/07 00:05:11;;;;;;;11.05;7.97;;;;;;;;;;4984527;28;20056;-72
2022/08/07 00:07:37;;;;;;;10.88;7.47;;;;;;;24.15;nan;100163.88;4986277;28;20495;-71
2022/08/07 00:10:03;;;;;;;14.43;7.82;;;;;;;24.22;nan;100227.97;4991456;28;20037;-71
2022/08/07 00:12:28;;;;;;;13.98;7.40;;;;;;;24.09;nan;100202.84;4989067;28;20093;-71
2022/08/07 00:14:54;;;;;;;15.93;7.57;;;;;;;24.16;nan;100160.09;4973976;28;20046;-71
2022/08/07 00:17:19;;;;;;;12.50;7.47;;;;;;;24.19;nan;100164.84;4991820;28;20030;-71
2022/08/07 00:19:45;;;;;;;9.23;6.90;;;;;;;24.14;nan;100170.41;4990237;28;20444;-71
2022/08/07 00:22:11;;;;;;;10.35;7.32;;;;;;;24.05;nan;100188.44;4985555;28;20030;-72
2022/08/07 00:24:36;;;;;;;9.65;7.07;;;;;;;23.95;nan;100175.34;4983157;28;20034;-71
2022/08/07 00:27:02;;;;;;;9.48;7.22;;;;;;;23.91;nan;100196.69;4955042;28;20058;-71
2022/08/07 00:29:28;;;;;;;12.98;6.95;;;;;;;23.93;nan;100183.72;4950291;28;20490;-71
2022/08/07 00:31:58;;;;;;;9.13;6.38;;;;;;;23.87;nan;100228.06;4949216;28;20441;-71
2022/08/07 00:34:24;;;;;;;11.95;6.60;;;;;;;23.86;nan;100190.72;4949183;28;20039;-71
2022/08/07 00:36:50;;;;;;;7.30;6.45;;;;;;;23.79;nan;100210.00;4967020;28;20541;-72
2022/08/07 00:39:15;;;;;;;7.75;6.47;;;;;;;23.75;nan;100179.47;4950437;28;20049;-71
2022/08/07 00:41:50;;;;;;;11.73;6.40;;;;;;;23.66;nan;100165.25;4948960;28;20643;-72
2022/08/07 00:44:16;;;;;;;8.20;6.20;;;;;;;23.56;nan;100139.50;4963846;28;20043;-71
2022/08/07 00:46:42;;;;;;;11.57;6.53;;;;;;;23.47;nan;100169.06;4949741;28;20517;-71
2022/08/07 00:49:08;;;;;;;18.58;7.00;;;;;;;23.51;nan;100194.19;4950778;28;20059;-71
2022/08/07 00:51:34;;;;;;;11.27;6.63;;;;;;;23.44;nan;100182.31;4951461;28;20031;-71
2022/08/07 00:54:00;;;;;;;9.85;6.05;;;;;;;23.44;nan;100175.06;4953409;28;20452;-70
2022/08/07 00:56:28;;;;;;;11.07;6.30;;;;;;;23.38;nan;100178.22;4952182;28;20067;-71
2022/08/07 00:58:54;;;;;;;7.18;6.18;;;;;;;23.38;nan;100175.53;4949564;28;20981;-71
2022/08/07 01:01:21;;;;;;;10.98;5.70;;;;;;;23.36;nan;100181.22;4951964;28;20464;-70
2022/08/07 01:03:48;;;;;;;7.55;6.20;;;;;;;23.24;nan;100162.25;4949334;28;20031;-71
2022/08/07 01:06:14;;;;;;;10.30;6.22;;;;;;;23.21;nan;100227.38;4961771;28;20043;-71
2022/08/07 01:08:40;;;;;;;8.60;6.30;;;;;;;23.24;nan;100189.91;4966293;28;20485;-72
2022/08/07 01:11:06;;;;;;;9.13;5.78;;;;;;;23.23;nan;100190.25;4948249;28;20052;-71
2022/08/07 01:13:32;;;;;;;10.80;6.00;;;;;;;23.18;nan;100187.69;4953034;28;20039;-71
2022/08/07 01:15:58;;;;;;;10.60;5.60;;;;;;;23.07;nan;100134.28;4950921;28;20038;-70
2022/08/07 01:18:24;;;;;;;9.77;6.60;;;;;;;23.06;nan;100194.47;4949493;28;20609;-71
2022/08/07 01:21:07;;;;;;;10.55;5.65;;;;;;;22.98;nan;100197.94;4949646;28;20035;-71
2022/08/07 01:23:33;;;;;;;7.90;5.75;;;;;;;22.91;nan;100198.38;4951972;29;20039;-71
2022/08/07 01:25:59;;;;;;;8.23;5.63;;;;;;;22.93;nan;100238.31;4958335;28;20552;-71
2022/08/07 01:28:25;;;;;;;10.50;5.88;;;;;;;22.84;nan;100207.97;4989975;28;20116;-71
2022/08/07 01:30:52;;;;;;;8.40;6.00;;;;;;;22.80;nan;100190.91;4970013;28;20039;-71
2022/08/07 01:33:18;;;;;;;8.70;5.28;;;;;;;22.71;nan;100204.31;4986175;28;20042;-71
2022/08/07 01:35:44;;;;;;;7.28;5.60;;;;;;;22.69;nan;100191.19;4970400;28;20399;-71
2022/08/07 01:38:10;;;;;;;11.75;5.38;;;;;;;22.56;nan;100223.53;4987965;28;20037;-71
2022/08/07 01:40:38;;;;;;;5.78;5.05;;;;;;;22.65;nan;100241.25;4988938;28;20122;-71
2022/08/07 01:43:04;;;;;;;10.45;5.63;;;;;;;22.68;nan;100215.69;4982595;28;20050;-72
2022/08/07 01:45:31;;;;;;;7.15;5.28;;;;;;;22.53;nan;100165.91;4990232;28;20109;-71
2022/08/07 01:47:58;;;;;;;8.10;5.50;;;;;;;22.48;nan;100195.53;4988314;28;20042;-71
2022/08/07 01:50:25;;;;;;;8.32;5.38;;;;;;;22.47;nan;100202.78;4986518;28;20104;-71
2022/08/07 01:52:54;;;;;;;11.32;5.05;;;;;;;22.44;nan;100203.41;4962204;28;20109;-71
2022/08/07 01:55:25;;;;;;;7.20;5.15;;;;;;;22.40;nan;100197.06;4988842;28;20125;-70
2022/08/07 01:57:54;;;;;;;5.30;4.80;;;;;;;22.40;nan;100204.34;4987106;28;20036;-70
2022/08/07 02:00:20;;;;;;;7.07;5.40;;;;;;;;;;4983699;28;20069;-69
2022/08/07 02:03:08;;;;;;;10.20;5.63;;;;;;;22.29;nan;100199.25;4988903;28;20465;-70
2022/08/07 02:05:42;;;;;;;15.02;5.13;;;;;;;22.30;nan;100186.63;4983487;28;20042;-71
2022/08/07 02:08:15;;;;;;;7.50;4.80;;;;;;;22.24;nan;100182.47;4978947;28;20076;-71
2022/08/07 02:10:42;;;;;;;7.78;5.40;;;;;;;22.19;nan;100198.69;4985872;28;20062;-71
2022/08/07 02:13:09;;;;;;;8.20;5.47;;;;;;;22.18;nan;100203.25;4984157;28;20046;-72
2022/08/07 02:15:37;;;;;;;8.93;5.50;;;;;;;22.13;nan;100191.88;4987665;28;20034;-71
2022/08/07 02:18:04;;;;;;;9.82;5.18;;;;;;;22.09;nan;100189.00;4972432;28;20048;-71
2022/08/07 02:20:31;;;;;;;7.57;4.60;;;;;;;22.09;nan;100207.78;4986823;28;20060;-71
2022/08/07 02:23:02;;;;;;;6.72;4.88;;;;;;;21.98;nan;100204.56;4987951;28;20034;-70
2022/08/07 02:25:30;;;;;;;7.22;4.90;;;;;;;21.90;nan;100189.19;4988178;28;20081;-71
2022/08/07 02:27:59;;;;;;;6.00;4.80;;;;;;;21.94;nan;100210.84;4989191;28;20042;-70
2022/08/07 02:30:25;;;;;;;7.32;5.03;;;;;;;;;;4986560;28;20064;-71
2022/08/07 02:32:51;;;;;;;5.78;4.68;;;;;;;21.83;nan;100196.88;4989603;28;20403;-71
2022/08/07 02:35:18;;;;;;;6.35;4.70;;;;;;;21.83;nan;100197.66;4986082;28;20097;-71
2022/08/07 02:37:45;;;;;;;10.93;5.60;;;;;;;21.85;nan;100203.53;4989943;28;20464;-67
2022/08/07 02:40:11;;;;;;;6.10;4.57;;;;;;;21.71;nan;100243.00;4984845;28;20042;-66
2022/08/07 02:42:38;;;;;;;7.45;4.88;;;;;;;21.74;nan;100218.28;4986227;28;20042;-71
2022/08/07 02:45:05;;;;;;;5.93;4.60;;;;;;;21.82;nan;100228.25;4987031;28;20049;-71
2022/08/07 02:47:31;;;;;;;9.02;5.00;;;;;;;21.70;nan;100185.13;4988384;28;20591;-71
2022/08/07 02:49:57;;;;;;;6.95;5.03;;;;;;;21.72;nan;100255.31;4989566;28;20038;-72
2022/08/07 02:52:30;;;;;;;7.43;5.00;;;;;;;21.66;nan;100235.84;4984008;28;20041;-70
2022/08/07 02:55:03;;;;;;;7.68;4.75;;;;;;;21.60;nan;100161.28;4987345;28;20050;-69
2022/08/07 02:57:30;;;;;;;11.63;4.82;;;;;;;21.57;nan;100255.63;4986902;28;20038;-71
2022/08/07 02:59:58;;;;;;;9.43;5.00;;;;;;;21.58;nan;100265.28;4985757;28;20038;-70
2022/08/07 03:02:24;;;;;;;11.27;4.75;;;;;;;21.60;nan;100215.66;4989652;28;20062;-72
2022/08/07 03:04:51;;;;;;;6.22;4.32;;;;;;;;;;4986910;28;20523;-72
2022/08/07 03:07:16;;;;;;;8.05;4.72;;;;;;;;;;4982200;28;20038;-71
2022/08/07 03:09:43;;;;;;;5.10;4.20;;;;;;;;;;4972164;28;20443;-70
2022/08/07 03:12:09;;;;;;;11.40;4.53;;;;;;;;;;4989285;28;20034;-70
2022/08/07 03:14:35;;;;;;;5.45;4.65;;;;;;;21.44;nan;100243.88;4986480;28;20046;-70
2022/08/07 03:17:02;;;;;;;6.68;4.72;;;;;;;21.47;nan;100288.00;4986524;28;20084;-70
2022/08/07 03:19:28;;;;;;;12.13;4.75;;;;;;;21.43;nan;100277.91;4972551;28;20061;-70
2022/08/07 03:21:55;;;;;;;9.48;4.53;;;;;;;21.40;nan;100254.38;4988178;28;20031;-71
2022/08/07 03:24:21;;;;;;;5.10;4.40;;;;;;;21.39;nan;100262.72;4987512;28;20625;-71
2022/08/07 03:26:50;;;;;;;5.25;4.57;;;;;;;21.32;nan;100263.09;4986275;28;20050;-71
2022/08/07 03:29:17;;;;;;;7.57;4.90;;;;;;;21.25;nan;100271.53;4967808;28;20045;-71
2022/08/07 03:31:46;;;;;;;7.00;4.45;;;;;;;21.29;nan;100250.31;4985013;28;20066;-70
2022/08/07 03:34:13;;;;;;;8.15;4.10;;;;;;;21.23;nan;100271.03;4988281;28;20092;-71
2022/08/07 03:36:39;;;;;;;5.97;4.28;;;;;;;21.29;nan;100262.94;4986183;28;20088;-71
2022/08/07 03:39:08;;;;;;;7.72;4.30;;;;;;;21.20;nan;100210.06;4987988;28;20034;-70
2022/08/07 03:41:34;;;;;;;;;;;;;;;21.17;nan;100276.81;4988023;28;20034;-70
2022/08/07 03:44:00;;;;;;;6.60;4.57;;;;;;;21.07;nan;100261.75;4987208;28;19918;-71
2022/08/07 03:46:27;;;;;;;7.18;4.50;;;;;;;21.08;nan;100270.56;4984589;28;20539;-71
2022/08/07 03:48:53;;;;;;;6.90;4.75;;;;;;;21.06;nan;100291.50;4985066;28;20043;-71
2022/08/07 03:51:19;;;;;;;6.93;4.72;;;;;;;;;;4988533;28;20361;-71
2022/08/07 03:53:45;;;;;;;7.75;4.22;;;;;;;21.06;nan;100286.94;4986688;28;20370;-67
2022/08/07 03:56:13;;;;;;;5.80;4.50;;;;;;;;;;4992000;28;20038;-67
2022/08/07 03:58:39;;;;;;;5.47;4.60;;;;;;;21.09;nan;100291.69;4988861;28;20817;-66
2022/08/07 04:01:05;;;;;;;6.53;4.47;;;;;;;;;;4990121;28;20042;-65
2022/08/07 04:03:31;;;;;;;4.65;4.05;;;;;;;21.03;nan;100291.00;4973528;28;20682;-67
2022/08/07 04:05:56;;;;;;;5.72;4.20;;;;;;;21.01;nan;100290.50;4993113;28;20512;-67
2022/08/07 04:08:22;;;;;;;7.78;4.47;;;;;;;21.06;nan;100278.91;4993358;28;20121;-67
2022/08/07 04:10:49;;;;;;;7.65;4.85;;;;;;;21.07;nan;100295.75;4973291;28;20046;-67
2022/08/07 04:13:15;;;;;;;8.73;4.32;;;;;;;21.04;nan;100286.44;4990027;28;20041;-67
2022/08/07 04:15:41;;;;;;;4.80;4.03;;;;;;;21.07;nan;100293.88;4994153;28;20034;-67
2022/08/07 04:18:07;;;;;;;6.53;4.63;;;;;;;21.08;nan;100294.66;4988281;28;20038;-68
2022/08/07 04:20:32;;;;;;;6.82;4.18;;;;;;;21.07;nan;100279.69;4989089;28;20163;-67
2022/08/07 04:22:58;;;;;;;5.90;4.72;;;;;;;21.11;nan;100305.56;4991028;28;20053;-68
2022/08/07 04:25:25;;;;;;;4.72;3.80;;;;;;;;;;4992592;28;20030;-68
2022/08/07 04:27:51;;;;;;;13.43;4.18;;;;;;;21.18;nan;100260.44;4989979;28;20042;-67
2022/08/07 04:30:17;;;;;;;6.55;4.55;;;;;;;21.22;nan;100309.63;4984656;28;20041;-68
2022/08/07 04:32:43;;;;;;;10.40;4.60;;;;;;;21.28;nan;100313.00;4987819;28;20408;-68
2022/08/07 04:35:09;;;;;;;8.82;4.57;;;;;;;21.27;nan;100303.38;4992609;28;20513;-72
2022/08/07 04:37:35;;;;;;;6.85;3.97;;;;;;;21.28;nan;100296.94;4973568;28;20038;-72
2022/08/07 04:40:04;;;;;;;5.57;4.10;;;;;;;21.37;nan;100302.38;4992306;28;20057;-68
2022/08/07 04:42:30;;;;;;;6.38;3.92;;;;;;;21.42;nan;100302.31;4989147;28;20034;-68
2022/08/07 04:44:57;;;;;;;6.95;4.35;;;;;;;21.42;nan;100321.06;4968608;28;20045;-68
2022/08/07 04:48:06;;;;;;;10.00;4.30;;;;;;;21.52;nan;100328.88;4975347;28;20061;-68
2022/08/07 04:50:37;;;;;;;8.33;4.03;;;;;;;21.57;nan;100334.16;4904968;29;20536;-67
2022/08/07 04:53:38;;;;;;;9.88;4.38;;;;;;;21.56;nan;100321.84;4928222;29;20314;-69
2022/08/07 04:56:17;;;;;;;8.10;4.40;;;;;;;21.60;nan;100423.88;4929607;29;20051;-66
2022/08/07 04:58:50;;;;;;;5.33;3.70;;;;;;;21.69;nan;100381.06;4926462;29;20044;-67
2022/08/07 05:01:37;;;;;;;6.57;4.20;;;;;;;21.72;nan;100314.28;4920845;29;20278;-67
2022/08/07 05:04:12;;;;;;;7.40;4.00;;;;;;;21.80;nan;100323.47;4918663;29;20051;-67
2022/08/07 05:07:16;;;;;;;6.32;4.47;;;;;;;21.85;nan;100350.16;4920914;29;20079;-73
2022/08/07 05:09:47;;;;;;;9.30;4.70;;;;;;;21.91;nan;100326.72;4867939;29;20049;-66
2022/08/07 05:12:20;;;;;;;6.70;4.20;;;;;;;21.93;nan;100327.22;4864786;29;20076;-72
2022/08/07 05:14:50;;;;;;;6.95;4.07;;;;;;;21.97;nan;100336.25;4852997;29;20060;-72
2022/08/07 05:17:19;;;;;;;5.70;4.03;;;;;;;22.03;nan;100335.84;4868208;29;20104;-69
2022/08/07 05:19:48;;;;;;;7.60;4.43;;;;;;;22.10;nan;100332.72;4871911;29;20636;-69
2022/08/07 05:22:14;;;;;;;;;;;;;;;22.19;nan;100354.25;4899102;29;20041;-69
2022/08/07 05:24:41;;;;;;;5.65;4.50;;;;;;;22.21;nan;100352.88;4899959;29;19935;-70
2022/08/07 05:27:13;;;;;;;7.50;4.30;;;;;;;22.24;nan;100328.16;4900978;29;20075;-70
2022/08/07 05:29:41;;;;;;;6.68;5.47;;;;;;;22.29;nan;100352.16;4898965;29;20040;-71
2022/08/07 05:32:08;;;;;;;17.58;11.20;;;;;;;22.39;nan;100355.69;4903121;29;20172;-73
2022/08/07 05:34:35;;;;;;;8.00;5.63;;;;;;;22.48;nan;100373.44;4909426;29;20042;-67
2022/08/07 05:37:02;;;;;;;20.33;14.77;;;;;;;22.59;nan;100376.66;4895940;29;20043;-67
2022/08/07 05:39:29;;;;;;;77.38;42.22;;;;;;;22.65;nan;100297.59;4909996;29;20045;-67
2022/08/07 05:41:54;;;;;;;66.70;38.38;;;;;;;22.67;nan;100397.41;4909506;29;20036;-68
2022/08/07 05:44:21;;;;;;;27.67;17.20;;;;;;;22.86;nan;100366.88;4917889;28;20100;-71
2022/08/07 05:46:48;;;;;;;14.48;8.57;;;;;;;22.93;nan;100388.69;4971888;28;20039;-70
2022/08/07 05:49:14;;;;;;;19.67;13.38;;;;;;;23.00;nan;100367.59;4992151;28;20038;-71
2022/08/07 05:51:44;;;;;;;8.02;5.97;;;;;;;23.10;nan;100393.41;4991096;28;20030;-71
2022/08/07 05:54:10;;;;;;;7.68;4.93;;;;;;;23.04;nan;100281.84;4969173;28;20458;-69
2022/08/07 05:56:38;;;;;;;8.75;4.88;;;;;;;23.11;nan;100292.91;4993667;28;20178;-71
2022/08/07 05:59:08;;;;;;;6.22;4.80;;;;;;;23.22;nan;100368.63;4974210;28;20042;-71
2022/08/07 06:01:38;;;;;;;11.02;4.60;;;;;;;23.35;nan;100367.75;4993553;28;20031;-70
2022/08/07 06:04:05;;;;;;;6.78;4.65;;;;;;;23.35;nan;100373.13;4988474;28;20042;-70
2022/08/07 06:06:32;;;;;;;10.70;4.57;;;;;;;23.42;nan;100351.19;4987146;28;20738;-71
2022/08/07 06:08:59;;;;;;;5.55;4.80;;;;;;;23.59;nan;100394.22;4987208;28;20038;-71
2022/08/07 06:11:25;;;;;;;7.40;4.70;;;;;;;23.61;nan;100375.06;4984399;28;20042;-69
2022/08/07 06:13:51;;;;;;;5.10;4.30;;;;;;;23.77;nan;100384.31;4977785;28;20520;-70
2022/08/07 06:16:19;;;;;;;10.15;4.60;;;;;;;23.88;nan;100434.00;4986222;28;20038;-69
2022/08/07 06:18:45;;;;;;;7.07;4.65;;;;;;;23.85;nan;100378.16;4985069;28;20041;-71
2022/08/07 06:21:12;;;;;;;6.03;4.57;;;;;;;24.03;nan;100413.94;4969150;28;20031;-71
2022/08/07 06:23:38;;;;;;;6.57;4.40;;;;;;;24.07;nan;100398.75;4989253;28;20038;-70
2022/08/07 06:26:06;;;;;;;8.55;4.75;;;;;;;24.15;nan;100372.97;4988128;28;20124;-71
2022/08/07 06:28:31;;;;;;;7.00;4.70;;;;;;;24.24;nan;100373.75;4984679;28;20038;-70
2022/08/07 06:30:57;;;;;;;6.13;4.30;;;;;;;24.37;nan;100385.44;4983239;28;20099;-71
2022/08/07 06:33:23;;;;;;;5.68;4.57;;;;;;;24.42;nan;100385.28;4987967;28;20038;-67
2022/08/07 06:35:49;;;;;;;6.45;5.20;;;;;;;24.46;nan;100372.00;4985062;28;20033;-71
2022/08/07 06:38:14;;;;;;;8.63;4.85;;;;;;;24.57;nan;100433.28;4985313;28;20034;-71
2022/08/07 06:40:46;;;;;;;9.48;4.93;;;;;;;24.65;nan;100385.13;4985713;28;20476;-72
2022/08/07 06:43:14;;;;;;;7.95;5.15;;;;;;;24.73;nan;100425.50;4984235;28;20093;-70
2022/08/07 06:45:40;;;;;;;13.50;5.05;;;;;;;24.81;nan;100378.91;4991209;28;20480;-71
2022/08/07 06:48:06;;;;;;;9.52;4.95;;;;;;;24.93;nan;100399.03;4974039;28;20042;-70
2022/08/07 06:50:35;;;;;;;7.72;4.97;;;;;;;25.04;nan;100394.84;4983658;28;20069;-67
2022/08/07 06:53:03;;;;;;;5.22;4.72;;;;;;;25.11;nan;100395.13;4966720;28;20034;-67
2022/08/07 06:55:31;;;;;;;6.32;4.63;;;;;;;25.29;nan;100405.91;4985555;28;20449;-68
2022/08/07 06:58:00;;;;;;;7.17;4.83;;;;;;;25.37;nan;100399.66;4987147;28;20113;-69
2022/08/07 07:00:33;;;;;;;6.40;4.78;;;;;;;25.45;nan;100380.75;4987361;28;21498;-66
2022/08/07 07:02:59;;;;;;;5.80;4.88;;;;;;;25.59;nan;100461.41;4982889;28;20038;-67
2022/08/07 07:05:25;;;;;;;10.23;5.15;;;;;;;25.63;nan;100403.00;4990877;28;20373;-68
2022/08/07 07:07:50;;;;;;;6.22;5.35;;;;;;;25.74;nan;100389.13;4982564;28;20027;-68
2022/08/07 07:10:28;;;;;;;12.80;4.90;;;;;;;25.78;nan;100417.06;4980917;28;20038;-67
2022/08/07 07:13:17;;;;;;;6.80;5.10;;;;;;;25.95;nan;100416.97;4973855;28;20125;-69
2022/08/07 07:15:53;;;;;;;5.28;4.78;;;;;;;26.01;nan;100396.78;4988428;28;20125;-67
2022/08/07 07:18:25;;;;;;;11.60;5.78;;;;;;;26.14;nan;100402.22;4987513;28;20113;-67
2022/08/07 07:21:16;;;;;;;7.93;5.03;;;;;;;26.22;nan;100423.75;4989986;28;20034;-70
2022/08/07 07:23:42;;;;;;;10.02;4.68;;;;;;;26.33;nan;100420.66;4974543;28;20038;-71
2022/08/07 07:26:12;;;;;;;10.00;4.85;;;;;;;26.27;nan;100371.50;4986718;28;20050;-70
2022/08/07 07:28:43;;;;;;;7.38;5.32;;;;;;;26.40;nan;100426.31;4990616;28;20087;-71
2022/08/07 07:31:20;;;;;;;7.07;5.80;;;;;;;26.45;nan;100394.50;4993685;28;20039;-69
2022/08/07 07:33:50;;;;;;;8.85;5.15;;;;;;;26.54;nan;100429.56;4992873;28;20042;-70
2022/08/07 07:36:16;;;;;;;6.15;4.90;;;;;;;26.55;nan;100358.19;4993484;28;20069;-68
2022/08/07 07:38:42;;;;;;;6.82;5.03;;;;;;;26.62;nan;100406.28;4991124;28;20049;-67
2022/08/07 07:41:10;;;;;;;6.82;5.10;;;;;;;26.71;nan;100361.06;4989745;28;20037;-68
2022/08/07 07:43:40;;;;;;;7.38;5.13;;;;;;;26.83;nan;100398.13;4968136;28;20428;-68
2022/08/07 07:46:08;;;;;;;10.25;5.07;;;;;;;26.92;nan;100399.59;4970660;28;20034;-67
2022/08/07 07:48:34;;;;;;;11.07;5.55;;;;;;;26.94;nan;100397.34;4989949;28;20031;-67
2022/08/07 07:51:02;;;;;;;9.20;5.78;;;;;;;27.01;nan;100434.66;4995120;28;20030;-69
2022/08/07 07:53:29;;;;;;;11.13;6.53;;;;;;;27.07;nan;100402.78;4988636;28;20496;-70
2022/08/07 07:55:58;;;;;;;8.95;6.40;;;;;;;27.12;nan;100421.47;4993778;28;20100;-71
2022/08/07 07:58:34;;;;;;;9.82;7.20;;;;;;;27.23;nan;100419.16;4987375;28;20485;-69
2022/08/07 08:01:00;;;;;;;9.85;5.95;;;;;;;27.17;nan;100407.75;4992759;28;20058;-71
2022/08/07 08:03:27;;;;;;;6.13;5.53;;;;;;;;;;4993033;28;20038;-69
2022/08/07 08:05:53;;;;;;;6.63;5.53;;;;;;;27.17;nan;100389.59;4991773;28;20045;-69
2022/08/07 08:08:19;;;;;;;15.27;8.50;;;;;;;27.43;nan;100431.00;4988484;28;20034;-68
2022/08/07 08:10:45;;;;;;;6.65;5.35;;;;;;;27.50;nan;100375.22;4988056;28;20400;-68
2022/08/07 08:13:12;;;;;;;7.60;6.68;;;;;;;27.69;nan;100434.13;4988560;28;20038;-70
2022/08/07 08:15:39;;;;;;;6.45;5.85;;;;;;;27.70;nan;100476.31;4987670;28;20058;-67
2022/08/07 08:18:08;;;;;;;9.93;5.68;;;;;;;27.86;nan;100437.75;4991468;28;20049;-67
2022/08/07 08:20:34;;;;;;;9.07;6.15;;;;;;;27.94;nan;100442.25;4990251;28;20176;-67
2022/08/07 08:28:36;;;;;;;7.97;5.57;;;;;;;28.13;nan;100447.84;4990867;28;20059;-69
2022/08/07 08:31:05;;;;;;;6.20;5.13;;;;;;;28.23;nan;100437.66;4990324;28;20041;-69
2022/08/07 08:33:35;;;;;;;7.32;6.63;;;;;;;28.17;nan;100418.97;4986101;28;20042;-70
2022/08/07 08:36:02;;;;;;;12.38;7.53;;;;;;;28.36;nan;100441.94;4972146;28;20096;-69
2022/08/07 08:38:35;;;;;;;9.43;5.93;;;;;;;28.40;nan;100429.28;4992022;28;20042;-68
2022/08/07 08:41:10;;;;;;;7.03;6.05;;;;;;;28.46;nan;100436.03;4990382;28;20051;-69
2022/08/07 08:43:55;;;;;;;7.50;5.93;;;;;;;28.58;nan;100441.41;4987470;28;20054;-67
2022/08/07 08:46:33;;;;;;;10.73;6.53;;;;;;;28.72;nan;100441.00;4987087;28;20461;-68
2022/08/07 08:49:11;;;;;;;10.88;6.03;;;;;;;28.82;nan;100439.72;4988974;28;20039;-67
2022/08/07 08:51:46;;;;;;;7.82;6.60;;;;;;;28.88;nan;100448.34;4982953;28;20030;-67
2022/08/07 08:54:25;;;;;;;9.73;6.07;;;;;;;28.92;nan;100422.16;4984078;28;20035;-68
2022/08/07 08:56:53;;;;;;;8.60;6.00;;;;;;;29.00;nan;100448.31;4984879;28;20031;-67
2022/08/07 08:59:39;;;;;;;9.32;6.00;;;;;;;28.99;nan;100452.94;4983953;28;20038;-66
2022/08/07 09:02:10;;;;;;;9.68;6.25;;;;;;;29.07;nan;100466.69;4987609;28;20042;-67
2022/08/07 09:04:36;;;;;;;8.70;6.30;;;;;;;29.19;nan;100431.38;4986250;28;20045;-67
2022/08/07 09:07:15;;;;;;;10.23;6.47;;;;;;;29.26;nan;100459.47;4988408;28;20396;-67
2022/08/07 09:09:54;;;;;;;12.10;7.00;;;;;;;29.30;nan;100462.25;4984433;28;20057;-68
2022/08/07 09:12:38;;;;;;;9.85;6.72;;;;;;;29.40;nan;100436.50;4985837;28;20030;-69
2022/08/07 09:15:14;;;;;;;9.15;6.40;;;;;;;29.43;nan;100416.84;4985285;28;20507;-68
2022/08/07 09:17:43;;;;;;;6.85;5.90;;;;;;;29.53;nan;100429.09;4989547;28;20046;-69
2022/08/07 09:20:18;;;;;;;6.28;5.68;;;;;;;29.55;nan;100424.09;4985744;28;20035;-70
2022/08/07 09:22:59;;;;;;;7.53;5.97;;;;;;;29.67;nan;100443.00;4987656;28;20121;-70
2022/08/07 09:25:37;;;;;;;20.08;9.93;;;;;;;29.70;nan;100426.00;4986531;28;20034;-70
2022/08/07 09:28:09;;;;;;;15.07;7.90;;;;;;;29.69;nan;100435.31;4981728;28;20050;-70
2022/08/07 09:30:57;;;;;;;7.65;5.60;;;;;;;29.77;nan;100447.09;4986417;28;20042;-69
2022/08/07 09:33:41;;;;;;;8.23;6.25;;;;;;;29.87;nan;100436.47;4988666;28;20081;-68
2022/08/07 09:36:39;;;;;;;10.20;6.78;;;;;;;29.92;nan;100434.63;4986412;28;20038;-69
2022/08/07 09:39:32;;;;;;;10.95;6.18;;;;;;;29.96;nan;100435.50;4937462;28;20070;-68
2022/08/07 09:41:57;;;;;;;8.23;5.90;;;;;;;29.90;nan;100446.59;4938650;28;20070;-68
2022/08/07 09:44:40;;;;;;;7.07;5.60;;;;;;;29.87;nan;100435.69;4937795;28;20207;-68
2022/08/07 09:47:48;;;;;;;7.72;5.93;;;;;;;29.94;nan;100416.03;4938566;28;20044;-70
2022/08/07 09:50:24;;;;;;;9.27;5.85;;;;;;;30.03;nan;100436.41;4931359;28;20087;-70
2022/08/07 09:52:59;;;;;;;8.75;5.88;;;;;;;29.96;nan;100406.41;4936470;29;20039;-70
2022/08/07 09:55:36;;;;;;;6.95;5.95;;;;;;;29.94;nan;100421.47;4942308;29;20031;-69
2022/08/07 09:58:37;;;;;;;8.82;5.97;;;;;;;30.01;nan;100440.63;4939390;29;20043;-69
2022/08/07 10:01:35;;;;;;;8.38;5.90;;;;;;;30.06;nan;100437.63;4937238;28;20036;-68
2022/08/07 10:04:01;;;;;;;8.20;6.03;;;;;;;30.09;nan;100396.19;4942429;28;20039;-69
2022/08/07 10:06:57;;;;;;;7.90;6.13;;;;;;;30.07;nan;100431.84;4939742;29;20036;-69
2022/08/07 10:09:42;;;;;;;6.38;5.63;;;;;;;30.15;nan;100429.28;4940596;29;20047;-69
2022/08/07 10:12:16;;;;;;;6.45;5.70;;;;;;;30.27;nan;100385.72;4941668;28;20172;-69
2022/08/07 10:15:09;;;;;;;9.38;5.70;;;;;;;30.44;nan;100412.41;4941471;29;20039;-69
2022/08/07 10:18:00;;;;;;;12.15;5.75;;;;;;;30.44;nan;100400.78;4983946;28;20061;-71
2022/08/07 10:20:49;;;;;;;7.60;5.57;;;;;;;30.54;nan;100389.31;4981761;28;20030;-69
2022/08/07 10:23:52;;;;;;;9.02;5.65;;;;;;;30.62;nan;100448.06;4985494;28;20488;-69
2022/08/07 10:26:49;;;;;;;7.40;5.63;;;;;;;30.65;nan;100384.03;4980019;28;20145;-68
2022/08/07 10:29:23;;;;;;;7.38;6.00;;;;;;;30.66;nan;100385.63;4986736;28;20026;-70
2022/08/07 10:31:48;;;;;;;7.80;5.90;;;;;;;30.71;nan;100375.25;4988954;28;20384;-69
2022/08/07 10:34:36;;;;;;;6.60;5.55;;;;;;;30.74;nan;100385.41;4984819;28;20034;-68
2022/08/07 10:37:16;;;;;;;8.45;5.97;;;;;;;30.84;nan;100377.81;4984448;28;20564;-69
2022/08/07 10:40:03;;;;;;;6.47;5.88;;;;;;;30.93;nan;100390.00;4987996;28;20522;-68
2022/08/07 10:42:39;;;;;;;7.78;5.40;;;;;;;31.02;nan;100372.66;4983419;28;20039;-67
2022/08/07 10:45:16;;;;;;;8.63;5.60;;;;;;;31.14;nan;100388.78;4983650;28;20097;-69
2022/08/07 10:47:48;;;;;;;7.90;5.75;;;;;;;31.21;nan;100382.69;4970304;28;20093;-68
2022/08/07 10:50:18;;;;;;;7.40;5.80;;;;;;;31.22;nan;100376.06;4985094;28;20034;-69
2022/08/07 10:52:50;;;;;;;8.57;5.32;;;;;;;31.31;nan;100387.50;4986985;28;20035;-69
2022/08/07 10:55:51;;;;;;;9.27;6.07;;;;;;;31.24;nan;100398.25;4987152;28;20041;-69
2022/08/07 10:58:43;;;;;;;8.45;5.72;;;;;;;31.32;nan;100362.66;4981603;28;20045;-69
2022/08/07 11:01:09;;;;;;;7.55;6.50;;;;;;;31.35;nan;100386.41;4946942;28;20037;-68
2022/08/07 11:03:47;;;;;;;9.10;8.20;;;;;;;31.37;nan;100346.00;4985321;28;20042;-68
2022/08/07 11:06:23;;;;;;;6.60;5.88;;;;;;;31.34;nan;100313.28;4982436;28;20512;-67
2022/08/07 11:09:23;;;;;;;9.93;7.65;;;;;;;31.37;nan;100358.81;4984136;28;20045;-67
2022/08/07 11:11:59;;;;;;;8.90;5.78;;;;;;;31.36;nan;100381.72;4979054;28;20027;-68
2022/08/07 11:14:52;;;;;;;10.82;5.55;;;;;;;31.41;nan;100356.16;4989719;28;20034;-68
2022/08/07 11:17:27;;;;;;;12.07;9.88;;;;;;;31.45;nan;100351.56;4975086;28;20046;-67
2022/08/07 11:20:08;;;;;;;15.75;10.30;;;;;;;31.51;nan;100340.00;4986239;28;20038;-66
2022/08/07 11:22:50;;;;;;;11.85;9.10;;;;;;;31.56;nan;100356.00;4981612;28;20080;-67
2022/08/07 11:25:22;;;;;;;8.77;7.53;;;;;;;31.46;nan;100353.94;4980481;28;20031;-67
2022/08/07 11:28:05;;;;;;;7.78;6.20;;;;;;;31.51;nan;100304.63;4983681;28;20047;-68
2022/08/07 11:31:01;;;;;;;6.80;5.35;;;;;;;31.52;nan;100348.94;4987107;28;20030;-68
2022/08/07 11:33:48;;;;;;;10.50;6.05;;;;;;;31.51;nan;100340.00;4981994;28;20503;-68
2022/08/07 11:36:32;;;;;;;6.47;5.68;;;;;;;31.61;nan;100343.22;4983263;28;20046;-67
2022/08/07 11:39:17;;;;;;;5.85;5.20;;;;;;;31.64;nan;100332.38;4984577;28;20043;-68
2022/08/07 11:42:24;;;;;;;5.60;4.78;;;;;;;31.71;nan;100334.41;4965683;28;20086;-67
2022/08/07 11:45:17;;;;;;;9.27;5.35;;;;;;;31.77;nan;100349.25;4980805;28;20065;-68
2022/08/07 11:48:30;;;;;;;9.73;5.05;;;;;;;31.94;nan;100332.38;4986076;28;20431;-69
2022/08/07 11:51:23;;;;;;;7.15;4.68;;;;;;;32.08;nan;100334.47;4983226;28;20092;-69
2022/08/07 11:53:51;;;;;;;6.15;5.05;;;;;;;32.06;nan;100344.16;4983326;28;20034;-69
2022/08/07 11:56:32;;;;;;;6.00;5.50;;;;;;;32.16;nan;100327.19;4965990;28;20038;-69
2022/08/07 11:59:06;;;;;;;6.68;5.03;;;;;;;32.29;nan;100309.38;4985463;28;20042;-69
2022/08/07 12:02:07;;;;;;;8.20;4.80;;;;;;;32.45;nan;100322.00;4988332;28;20073;-68
2022/08/07 12:04:44;;;;;;;9.70;4.72;;;;;;;32.61;nan;100303.47;4985814;28;20172;-70
2022/08/07 12:07:36;;;;;;;5.82;4.75;;;;;;;32.77;nan;100290.34;4988232;28;20049;-70
2022/08/07 12:10:21;;;;;;;5.80;5.20;;;;;;;32.93;nan;100309.16;4984869;28;20049;-67
2022/08/07 12:12:55;;;;;;;7.22;4.95;;;;;;;33.03;nan;100308.47;4944105;28;20070;-68
2022/08/07 12:15:39;;;;;;;5.63;4.93;;;;;;;33.11;nan;100309.28;4985732;28;20034;-68